Time;durP1;ratioP1;P1;durP2;ratioP2;P2;SDS_P1;SDS_P2;PMS_P1;PMS_P2;Temp;Humidity;BMP_temperature;BMP_pressure;BME280_temperature;BME280_humidity;BME280_pressure;Samples;Min_cycle;Max_cycle;Signal;HPM_P1;HPM_P2
2022/11/21 00:04:47;;;;;;;3.08;0.80;;;;;;;18.39;50.29;100544.50;16132405;19;129310;-41
2022/11/21 00:10:08;;;;;;;1.05;0.60;;;;;;;18.36;50.08;100544.97;16130065;19;129239;-41
2022/11/21 00:15:32;;;;;;;3.00;0.80;;;;;;;18.33;50.24;100526.13;16131023;19;129912;-42
2022/11/21 00:20:53;;;;;;;1.63;0.80;;;;;;;18.32;50.31;100524.44;16130291;19;129339;-42
2022/11/21 00:26:16;;;;;;;1.88;0.95;;;;;;;18.30;50.57;100523.84;16128876;19;129649;-40
2022/11/21 00:31:38;;;;;;;1.92;0.80;;;;;;;18.28;50.45;100520.50;16130792;19;129151;-42
2022/11/21 00:36:59;;;;;;;1.67;0.50;;;;;;;18.24;50.32;100511.88;16126513;19;131041;-41
2022/11/21 00:42:21;;;;;;;2.10;0.70;;;;;;;18.24;50.59;100513.78;16128310;19;133679;-40
2022/11/21 00:47:43;;;;;;;0.70;0.50;;;;;;;18.22;50.31;100511.28;16129399;19;129796;-40
2022/11/21 00:53:04;;;;;;;1.17;0.55;;;;;;;18.21;50.24;100517.91;16126830;19;129721;-41
2022/11/21 00:58:26;;;;;;;0.85;0.50;;;;;;;18.20;50.62;100507.09;16125283;19;130254;-40
2022/11/21 01:03:48;;;;;;;1.52;0.50;;;;;;;18.19;50.66;100511.78;16125403;19;129465;-41
2022/11/21 01:09:10;;;;;;;1.67;0.60;;;;;;;18.15;50.65;100508.69;16125441;19;129191;-40
2022/11/21 01:14:32;;;;;;;0.75;0.40;;;;;;;18.14;50.31;100504.22;16123204;19;129101;-40
2022/11/21 01:19:53;;;;;;;1.98;0.52;;;;;;;18.13;50.50;100519.16;16126855;19;129392;-41
2022/11/21 01:25:15;;;;;;;1.23;0.63;;;;;;;18.11;50.21;100499.19;16124209;19;129919;-42
2022/11/21 01:30:37;;;;;;;2.47;0.50;;;;;;;18.09;50.25;100504.13;16124419;19;130038;-40
2022/11/21 01:36:26;;;;;;;0.70;0.38;;;;;;;18.09;50.18;100506.09;16123983;19;129320;-41
2022/11/21 01:41:48;;;;;;;0.68;0.30;;;;;;;18.05;50.15;100508.53;16123094;19;129764;-41
2022/11/21 01:47:09;;;;;;;1.00;0.40;;;;;;;18.05;50.29;100516.84;16121729;19;129527;-40
2022/11/21 01:52:32;;;;;;;1.25;0.60;;;;;;;18.04;50.54;100495.78;16123584;19;129530;-41
2022/11/21 01:57:54;;;;;;;1.35;0.40;;;;;;;18.02;50.56;100506.25;16122118;19;130000;-44
2022/11/21 02:03:23;;;;;;;2.05;0.40;;;;;;;18.02;50.15;100509.03;16119620;19;134074;-41
2022/11/21 02:08:45;;;;;;;1.88;0.65;;;;;;;17.99;50.14;100502.06;16120315;19;129055;-42
2022/11/21 02:14:08;;;;;;;1.33;0.40;;;;;;;17.98;50.29;100491.22;16119734;19;129561;-41
2022/11/21 02:19:39;;;;;;;1.30;0.40;;;;;;;17.97;50.58;100487.66;16121279;19;129457;-40
2022/11/21 02:25:08;;;;;;;0.93;0.50;;;;;;;17.94;50.07;100493.69;16130766;19;129715;-40
2022/11/21 02:30:34;;;;;;;1.60;0.32;;;;;;;17.94;50.30;100493.69;16134758;19;129398;-40
2022/11/21 02:36:00;;;;;;;0.55;0.30;;;;;;;17.95;50.24;100489.00;16131761;19;129712;-40
2022/11/21 02:41:25;;;;;;;0.73;0.30;;;;;;;17.92;50.76;100487.56;16135251;19;128917;-40
2022/11/21 02:46:51;;;;;;;1.33;0.52;;;;;;;17.90;50.50;100498.06;16135514;19;129631;-43
2022/11/21 02:52:12;;;;;;;0.55;0.20;;;;;;;17.90;50.55;100497.19;16132653;19;129539;-39
2022/11/21 02:57:34;;;;;;;0.68;0.40;;;;;;;17.90;50.43;100494.44;16135279;19;130395;-40
2022/11/21 03:02:56;;;;;;;2.45;0.63;;;;;;;17.89;50.22;100501.06;16133816;19;129202;-42
2022/11/21 03:08:17;;;;;;;0.90;0.30;;;;;;;17.87;50.62;100493.03;16131739;19;129768;-40
2022/11/21 03:13:39;;;;;;;0.63;0.25;;;;;;;17.87;50.68;100481.09;16133103;19;129782;-40
2022/11/21 03:19:01;;;;;;;1.58;0.40;;;;;;;17.84;50.42;100476.91;16131670;19;129596;-42
2022/11/21 03:24:23;;;;;;;0.30;0.28;;;;;;;17.82;50.76;100468.03;16131795;19;129944;-41
2022/11/21 03:29:44;;;;;;;0.57;0.20;;;;;;;17.81;50.62;100471.88;16134820;19;131063;-40
2022/11/21 03:35:06;;;;;;;0.70;0.30;;;;;;;17.79;50.73;100474.91;16131136;19;130078;-40
2022/11/21 03:40:28;;;;;;;1.27;0.28;;;;;;;17.79;50.51;100472.13;16130028;19;130276;-40
2022/11/21 03:45:50;;;;;;;1.05;0.35;;;;;;;17.77;50.35;100466.00;16134894;19;129263;-41
2022/11/21 03:51:11;;;;;;;0.93;0.30;;;;;;;17.77;50.35;100471.53;16129633;19;129721;-43
2022/11/21 03:56:34;;;;;;;0.63;0.30;;;;;;;17.76;50.41;100464.34;16132002;19;129554;-39
2022/11/21 04:01:55;;;;;;;0.68;0.20;;;;;;;17.75;50.89;100470.94;16127814;19;129168;-40
2022/11/21 04:07:17;;;;;;;0.77;0.38;;;;;;;17.75;50.59;100479.25;16128452;19;129977;-40
2022/11/21 04:12:39;;;;;;;0.47;0.30;;;;;;;17.74;50.64;100482.28;16128643;19;129489;-41
2022/11/21 04:18:00;;;;;;;0.30;0.20;;;;;;;17.72;50.51;100477.00;16127617;19;129637;-40
2022/11/21 04:23:22;;;;;;;0.32;0.15;;;;;;;17.72;50.78;100478.91;16126139;19;129950;-40
2022/11/21 04:28:44;;;;;;;0.60;0.25;;;;;;;17.72;50.61;100478.91;16126916;19;129594;-43
2022/11/21 04:34:06;;;;;;;0.30;0.20;;;;;;;17.69;50.63;100475.56;16127287;19;130032;-40
2022/11/21 04:39:27;;;;;;;0.20;0.10;;;;;;;17.68;50.40;100473.06;16124848;19;129732;-42
2022/11/21 04:44:49;;;;;;;0.70;0.30;;;;;;;17.68;50.74;100475.81;16125861;19;129766;-44
2022/11/21 04:50:14;;;;;;;0.60;0.20;;;;;;;17.67;50.48;100471.38;16122852;19;130424;-39
2022/11/21 04:55:35;;;;;;;0.55;0.20;;;;;;;17.67;50.40;100457.56;16127316;19;129599;-40
2022/11/21 05:00:57;;;;;;;0.88;0.40;;;;;;;17.64;50.35;100464.44;16126788;19;129576;-40
2022/11/21 05:06:19;;;;;;;0.60;0.22;;;;;;;17.62;50.59;100449.16;16123467;19;129817;-41
2022/11/21 05:17:22;;;;;;;0.68;0.30;;;;;;;17.61;50.48;100433.66;16127378;19;130332;-41
2022/11/21 05:22:48;;;;;;;1.27;0.20;;;;;;;17.59;50.21;100433.09;16124556;19;129520;-42
2022/11/21 05:28:10;;;;;;;0.22;0.10;;;;;;;17.58;50.56;100417.56;16124938;19;129450;-40
2022/11/21 05:33:32;;;;;;;0.47;0.30;;;;;;;17.57;50.60;100418.66;16125344;19;129471;-40
2022/11/21 05:38:53;;;;;;;0.60;0.22;;;;;;;17.55;50.33;100424.44;16121790;19;129392;-41
2022/11/21 05:44:15;;;;;;;0.47;0.20;;;;;;;17.54;50.22;100426.38;16121201;19;129478;-40
2022/11/21 05:49:37;;;;;;;0.35;0.15;;;;;;;17.54;50.20;100428.25;16124919;19;129675;-41
2022/11/21 05:54:58;;;;;;;0.40;0.28;;;;;;;17.54;50.14;100419.94;16121919;19;130015;-40
2022/11/21 06:00:20;;;;;;;0.32;0.20;;;;;;;17.53;50.27;100413.59;16119659;19;129459;-40
2022/11/21 06:05:42;;;;;;;0.20;0.10;;;;;;;17.53;50.53;100404.47;16122706;19;129394;-40
2022/11/21 06:11:05;;;;;;;0.20;0.15;;;;;;;17.53;50.18;100393.41;16120755;19;129194;-41
2022/11/21 06:16:27;;;;;;;0.08;0.08;;;;;;;17.52;50.13;100387.03;16121566;19;129870;-40
2022/11/21 06:21:49;;;;;;;0.57;0.20;;;;;;;17.52;50.14;100378.72;16117240;19;129708;-40
2022/11/21 06:27:10;;;;;;;0.57;0.28;;;;;;;17.52;50.46;100384.25;16118852;19;129933;-40
2022/11/21 06:32:36;;;;;;;0.10;0.10;;;;;;;17.53;50.17;100385.94;16119047;19;129199;-40
2022/11/21 06:37:58;;;;;;;0.30;0.20;;;;;;;17.53;50.37;100374.06;16120634;19;129456;-42
2022/11/21 06:43:19;;;;;;;0.20;0.20;;;;;;;17.51;50.29;100371.50;16118904;19;129409;-39
2022/11/21 06:48:42;;;;;;;0.63;0.20;;;;;;;17.51;50.45;100363.22;16119664;19;131341;-40
2022/11/21 06:54:04;;;;;;;0.52;0.20;;;;;;;17.51;50.16;100365.97;16117721;19;130266;-42
2022/11/21 06:59:25;;;;;;;0.43;0.25;;;;;;;17.50;50.35;100358.78;16115329;19;130306;-40
2022/11/21 07:04:47;;;;;;;0.40;0.10;;;;;;;17.50;49.92;100347.72;16119052;19;130766;-41
2022/11/21 07:10:09;;;;;;;1.80;0.20;;;;;;;17.46;50.30;100352.09;16120303;19;129554;-40
2022/11/21 07:15:32;;;;;;;4.65;0.30;;;;;;;17.48;49.96;100349.88;16131167;19;129630;-43
2022/11/21 07:21:03;;;;;;;1.30;0.30;;;;;;;17.65;49.90;100343.53;16129908;19;130864;-40
2022/11/21 07:26:24;;;;;;;1.10;0.30;;;;;;;18.36;49.00;100333.69;16131183;19;129477;-40
2022/11/21 07:31:46;;;;;;;1.60;0.28;;;;;;;19.44;47.52;100334.75;16132446;19;130632;-42
2022/11/21 07:37:08;;;;;;;1.20;0.30;;;;;;;20.39;46.03;100338.59;16128450;19;129383;-43
2022/11/21 07:42:34;;;;;;;1.05;0.20;;;;;;;21.03;44.63;100330.16;16129083;19;129600;-42
2022/11/21 07:48:00;;;;;;;4.00;0.60;;;;;;;21.60;43.24;100330.97;16131304;19;129769;-41
2022/11/21 07:53:22;;;;;;;4.55;0.50;;;;;;;21.25;43.26;100331.81;16129192;19;129807;-43
2022/11/21 07:58:44;;;;;;;7.57;0.82;;;;;;;20.68;43.33;100320.63;16127847;19;129336;-41
2022/11/21 08:04:06;;;;;;;3.97;1.05;;;;;;;20.20;43.93;100316.03;16129902;19;130487;-40
2022/11/21 08:09:28;;;;;;;4.47;0.73;;;;;;;19.88;44.20;100308.66;16126923;19;129038;-40
2022/11/21 08:14:50;;;;;;;5.85;1.00;;;;;;;19.65;43.83;100310.75;16127699;19;129371;-43
2022/11/21 08:20:12;;;;;;;5.45;1.10;;;;;;;19.48;44.10;100304.53;16123371;19;129524;-43
2022/11/21 08:25:36;;;;;;;6.63;0.90;;;;;;;19.34;43.89;100299.44;16125729;19;131716;-41
2022/11/21 08:30:57;;;;;;;8.07;1.27;;;;;;;19.22;43.60;100280.25;16128051;19;129619;-43
2022/11/21 08:36:19;;;;;;;5.57;0.80;;;;;;;19.12;43.74;100279.28;16125258;19;129908;-41
2022/11/21 08:47:21;;;;;;;9.82;1.23;;;;;;;18.93;43.36;100254.78;16124222;19;130858;-40
2022/11/21 08:52:43;;;;;;;6.68;0.88;;;;;;;18.86;43.06;100243.06;16127314;19;130251;-41
2022/11/21 08:58:05;;;;;;;9.07;1.30;;;;;;;18.80;43.17;100228.31;16123584;19;129747;-40
2022/11/21 09:03:26;;;;;;;8.60;0.93;;;;;;;18.73;43.88;100242.41;16112756;19;129445;-42
2022/11/21 09:08:52;;;;;;;7.80;1.10;;;;;;;18.68;43.08;100242.38;16116848;19;130689;-39
2022/11/21 09:20:14;;;;;;;19.90;1.35;;;;;;;18.58;43.64;100231.19;16114877;19;129714;-40
2022/11/21 09:25:36;;;;;;;6.55;1.00;;;;;;;18.57;43.64;100235.06;16115585;19;130817;-40
2022/11/21 09:30:57;;;;;;;15.50;1.92;;;;;;;18.53;43.58;100222.81;16115397;19;130764;-41
2022/11/21 09:36:19;;;;;;;22.40;2.15;;;;;;;18.51;42.74;100216.72;16114285;19;130095;-45
2022/11/21 09:42:18;;;;;;;20.10;2.33;;;;;;;18.49;42.22;100211.44;16119182;19;134264;-40
2022/11/21 09:47:44;;;;;;;7.05;1.73;;;;;;;18.49;42.19;100218.91;16118932;19;130078;-43
2022/11/21 09:53:13;;;;;;;16.52;1.45;;;;;;;18.49;42.77;100210.59;16122308;19;129572;-39
2022/11/21 09:58:54;;;;;;;8.30;1.77;;;;;;;18.60;42.23;100192.97;16121754;19;129557;-40
2022/11/21 10:04:16;;;;;;;8.32;1.10;;;;;;;18.80;42.08;100188.69;16124138;19;133455;-43
2022/11/21 10:09:50;;;;;;;7.50;1.10;;;;;;;19.05;41.85;100188.03;16123027;19;129297;-42
2022/11/21 10:15:24;;;;;;;6.95;1.38;;;;;;;19.24;41.45;100176.56;16119543;19;130203;-42
2022/11/21 10:20:54;;;;;;;6.28;1.00;;;;;;;19.41;41.07;100152.22;16120270;19;129598;-40
2022/11/21 10:26:40;;;;;;;9.70;1.20;;;;;;;19.53;41.22;100138.94;16117873;19;133949;-40
2022/11/21 10:32:38;;;;;;;2.58;1.20;;;;;;;19.59;41.08;100134.25;16118719;19;130352;-41
2022/11/21 10:38:02;;;;;;;3.60;1.10;;;;;;;19.56;40.97;100118.16;16122133;19;130341;-41
2022/11/21 10:49:13;;;;;;;6.43;1.03;;;;;;;19.45;41.21;100097.88;16135237;19;129740;-41
2022/11/21 10:55:03;;;;;;;4.10;1.10;;;;;;;19.37;41.21;100093.69;16136992;19;129838;-41
2022/11/21 11:00:26;;;;;;;2.38;0.80;;;;;;;19.28;41.39;100095.31;16133694;19;129574;-43
2022/11/21 11:05:57;;;;;;;1.92;0.85;;;;;;;19.20;41.61;100070.84;16134112;19;129321;-43
2022/11/21 11:11:24;;;;;;;8.75;1.17;;;;;;;19.17;41.80;100055.56;16129453;19;129827;-40
2022/11/21 11:16:46;;;;;;;5.63;1.48;;;;;;;19.15;42.30;100030.06;16135687;19;129682;-39
2022/11/21 11:22:26;;;;;;;4.15;0.75;;;;;;;19.20;42.32;100012.63;16130133;19;129902;-38
2022/11/21 11:27:48;;;;;;;4.43;0.93;;;;;;;19.27;42.43;99996.59;16133856;19;129574;-38
2022/11/21 11:33:31;;;;;;;2.88;1.00;;;;;;;19.42;41.93;100000.50;16131403;19;129192;-40
2022/11/21 11:38:58;;;;;;;3.83;1.30;;;;;;;19.49;42.08;99988.03;16132874;19;130085;-46
2022/11/21 11:50:20;;;;;;;2.15;0.85;;;;;;;19.57;41.63;99964.44;16132193;19;129614;-38
2022/11/21 11:55:53;;;;;;;4.13;0.82;;;;;;;19.57;41.83;99947.81;16132854;19;134688;-48
2022/11/21 12:01:30;;;;;;;2.55;0.68;;;;;;;19.52;41.80;99926.44;16130375;19;129535;-48
2022/11/21 12:06:52;;;;;;;2.63;1.05;;;;;;;19.46;41.81;99907.28;16130339;19;129367;-50
2022/11/21 12:12:49;;;;;;;6.00;1.67;;;;;;;19.33;40.91;99887.31;16130270;19;130303;-49
2022/11/21 12:18:14;;;;;;;3.83;1.38;;;;;;;19.16;39.72;99889.50;16132392;19;129871;-39
2022/11/21 12:23:36;;;;;;;6.13;2.10;;;;;;;19.02;39.23;99854.00;16130221;19;135758;-43
2022/11/21 12:29:16;;;;;;;5.25;1.60;;;;;;;18.90;38.78;99856.19;16131280;19;129181;-47
2022/11/21 12:34:58;;;;;;;5.53;1.60;;;;;;;18.86;38.06;99844.00;16128619;19;129644;-48
2022/11/21 12:40:25;;;;;;;8.85;1.40;;;;;;;18.85;38.41;99848.72;16129585;19;129309;-48
2022/11/21 12:45:56;;;;;;;5.90;1.50;;;;;;;18.85;38.36;99842.31;16130043;19;129615;-47
2022/11/21 12:57:18;;;;;;;6.32;1.45;;;;;;;18.82;38.59;99802.16;16126384;19;131160;-43
2022/11/21 13:02:58;;;;;;;4.88;1.73;;;;;;;18.83;39.19;99778.06;16128035;19;129429;-46
2022/11/21 13:08:35;;;;;;;5.50;1.50;;;;;;;18.82;39.02;99757.00;16123315;19;129769;-41
2022/11/21 13:14:08;;;;;;;5.32;1.50;;;;;;;18.76;39.55;99740.34;16123098;19;129846;-43
2022/11/21 13:20:05;;;;;;;5.78;0.90;;;;;;;18.74;39.81;99719.59;16122584;19;130251;-43
2022/11/21 13:25:42;;;;;;;3.90;0.82;;;;;;;18.75;39.55;99705.44;16116017;19;129498;-39
2022/11/21 13:31:28;;;;;;;5.55;1.02;;;;;;;18.79;39.63;99696.59;16114269;19;130572;-42
2022/11/21 13:36:49;;;;;;;5.37;1.30;;;;;;;18.77;39.97;99680.22;16112546;19;129705;-38
2022/11/21 13:48:04;;;;;;;3.42;1.00;;;;;;;18.89;39.49;99671.63;16113650;19;129954;-39
2022/11/21 13:53:52;;;;;;;3.33;0.90;;;;;;;19.06;39.66;99666.63;16111705;19;129824;-39
2022/11/21 13:59:44;;;;;;;4.13;1.00;;;;;;;19.35;39.62;99651.34;16117941;19;130340;-42
2022/11/21 14:05:23;;;;;;;;;;;;;;;19.55;39.68;99642.13;16124123;19;129268;-40
2022/11/21 14:10:47;;;;;;;2.45;0.70;;;;;;;19.82;39.82;99635.31;16121891;19;129475;-46
2022/11/21 14:16:20;;;;;;;5.47;0.95;;;;;;;20.05;39.48;99608.84;16120689;19;129719;-39
2022/11/21 14:21:45;;;;;;;1.85;0.85;;;;;;;20.15;38.82;99594.06;16130491;19;129061;-41
2022/11/21 14:27:18;;;;;;;7.13;0.80;;;;;;;20.14;39.02;99579.31;16134053;19;129782;-42
2022/11/21 14:32:40;;;;;;;14.38;1.30;;;;;;;20.09;39.27;99565.50;16135941;19;129586;-41
2022/11/21 14:38:04;;;;;;;49.72;27.88;;;;;;;20.08;40.00;99546.34;16132115;19;129952;-41
2022/11/21 14:43:30;;;;;;;52.95;29.40;;;;;;;20.06;40.09;99549.41;16132605;19;130751;-41
2022/11/21 14:48:52;;;;;;;112.63;62.33;;;;;;;19.99;40.36;99510.03;16133012;19;129531;-40
2022/11/21 14:54:26;;;;;;;86.18;45.92;;;;;;;19.90;40.62;99490.41;16133436;19;129808;-40
2022/11/21 14:59:50;;;;;;;72.82;41.88;;;;;;;19.79;41.33;99494.38;16133146;19;129563;-42
2022/11/21 15:05:14;;;;;;;70.07;39.30;;;;;;;19.68;41.99;99476.97;16133534;19;129591;-38
2022/11/21 15:10:59;;;;;;;67.50;36.55;;;;;;;19.59;42.29;99482.28;16132206;19;129411;-40
2022/11/21 15:16:22;;;;;;;61.30;31.55;;;;;;;19.51;42.53;99488.44;16132113;19;133585;-41
2022/11/21 15:21:44;;;;;;;62.53;24.98;;;;;;;19.43;42.90;99470.47;16133613;19;129286;-43
2022/11/21 15:27:28;;;;;;;67.57;23.70;;;;;;;19.38;42.98;99476.88;16129697;19;130151;-41
2022/11/21 15:33:00;;;;;;;50.67;20.40;;;;;;;19.29;43.57;99463.91;16128481;19;129658;-40
2022/11/21 15:38:26;;;;;;;40.05;18.98;;;;;;;19.17;43.35;99461.47;16128487;19;129216;-41
2022/11/21 15:43:50;;;;;;;40.88;14.95;;;;;;;19.09;43.23;99449.03;16127549;19;129567;-42
2022/11/21 15:49:13;;;;;;;43.80;15.48;;;;;;;19.05;43.21;99434.06;16127298;19;129649;-42
2022/11/21 15:54:53;;;;;;;33.65;14.13;;;;;;;19.02;43.60;99438.25;16128241;19;132997;-40
2022/11/21 16:00:16;;;;;;;39.30;14.57;;;;;;;19.01;43.89;99427.47;16128170;19;129510;-41
2022/11/21 16:05:37;;;;;;;46.58;14.85;;;;;;;18.97;43.84;99407.78;16132542;19;129122;-44
2022/11/21 16:10:59;;;;;;;48.58;14.18;;;;;;;18.92;44.01;99394.78;16128243;19;129662;-44
2022/11/21 16:16:24;;;;;;;40.05;13.45;;;;;;;18.85;44.37;99377.66;16128196;19;134318;-39
2022/11/21 16:21:45;;;;;;;42.95;12.88;;;;;;;18.83;44.14;99368.78;16127487;19;130741;-39
2022/11/21 16:27:07;;;;;;;45.65;12.52;;;;;;;18.83;44.63;99356.91;16125763;19;129976;-39
2022/11/21 16:32:29;;;;;;;40.55;12.05;;;;;;;18.82;44.26;99344.16;16130015;19;129500;-43
2022/11/21 16:37:52;;;;;;;45.95;10.15;;;;;;;18.77;44.90;99333.91;16128552;19;129986;-40
2022/11/21 16:43:14;;;;;;;46.55;17.85;;;;;;;18.78;44.58;99316.16;16126533;19;129564;-39
2022/11/21 16:48:36;;;;;;;54.80;20.80;;;;;;;18.76;45.16;99310.94;16129572;19;130392;-40
2022/11/21 16:53:57;;;;;;;52.20;17.90;;;;;;;18.74;45.04;99304.84;16126358;19;129355;-39
2022/11/21 16:59:27;;;;;;;40.45;14.63;;;;;;;18.73;45.02;99291.28;16124669;19;129763;-38
2022/11/21 17:04:51;;;;;;;57.17;21.95;;;;;;;18.73;45.09;99283.78;16126518;19;129595;-40
2022/11/21 17:10:13;;;;;;;67.07;28.45;;;;;;;18.75;44.89;99273.25;16124083;19;129339;-37
2022/11/21 17:15:35;;;;;;;59.55;24.42;;;;;;;18.80;44.59;99271.56;16123654;19;129540;-38
2022/11/21 17:20:57;;;;;;;39.70;19.52;;;;;;;18.93;44.42;99268.16;16124051;19;129439;-38
2022/11/21 17:26:24;;;;;;;32.90;16.75;;;;;;;19.08;44.14;99245.03;16123083;19;129024;-37
2022/11/21 17:31:49;;;;;;;40.40;15.75;;;;;;;19.21;44.02;99240.75;16123705;19;129084;-37
2022/11/21 17:37:10;;;;;;;34.05;13.48;;;;;;;19.28;43.79;99241.28;16122434;19;129514;-37
2022/11/21 17:42:32;;;;;;;33.75;12.70;;;;;;;19.31;44.10;99231.53;16122230;19;130152;-37
2022/11/21 17:47:54;;;;;;;25.27;11.43;;;;;;;19.28;43.81;99213.53;16123109;19;129669;-37
2022/11/21 17:53:16;;;;;;;29.65;11.07;;;;;;;19.25;43.55;99213.31;16122428;19;129301;-38
2022/11/21 17:58:38;;;;;;;31.95;10.93;;;;;;;19.18;44.00;99197.81;16122372;19;131603;-38
2022/11/21 18:04:02;;;;;;;38.25;10.13;;;;;;;19.16;43.99;99194.50;16118040;19;130186;-38
2022/11/21 18:09:24;;;;;;;26.60;9.70;;;;;;;19.14;44.09;99185.63;16118615;19;129397;-37
2022/11/21 18:14:48;;;;;;;19.37;7.40;;;;;;;19.12;44.23;99178.75;16117560;19;130543;-38
2022/11/21 18:20:10;;;;;;;27.55;7.93;;;;;;;19.07;43.84;99174.06;16119058;19;130001;-37
2022/11/21 18:25:36;;;;;;;23.38;7.22;;;;;;;19.05;44.30;99160.53;16119607;19;129586;-37
2022/11/21 18:31:10;;;;;;;;;;;;;;;18.97;44.50;99150.03;16124839;19;130611;-38
2022/11/21 18:36:32;;;;;;;36.30;5.80;;;;;;;19.02;44.28;99147.25;16120325;19;130924;-37
2022/11/21 18:41:54;;;;;;;17.27;4.90;;;;;;;19.29;44.48;99142.28;16118557;19;129511;-37
2022/11/21 18:47:16;;;;;;;15.70;4.47;;;;;;;19.74;43.80;99139.25;16115863;19;129294;-38
2022/11/21 18:52:41;;;;;;;15.43;4.53;;;;;;;20.11;43.06;99132.94;16119020;19;131409;-38
2022/11/21 18:58:07;;;;;;;12.27;3.38;;;;;;;20.24;42.54;99114.69;16116167;19;129708;-38
2022/11/21 19:03:29;;;;;;;15.35;4.28;;;;;;;20.26;43.07;99129.09;16114687;19;130142;-37
2022/11/21 19:08:52;;;;;;;11.57;3.08;;;;;;;20.22;42.81;99099.47;16128746;19;129583;-38
2022/11/21 19:14:14;;;;;;;13.68;2.83;;;;;;;20.13;42.35;99096.53;16131351;19;130041;-38
2022/11/21 19:19:36;;;;;;;10.82;2.72;;;;;;;20.05;42.57;99097.22;16134462;19;134877;-38
2022/11/21 19:24:58;;;;;;;12.75;2.90;;;;;;;19.95;42.31;99087.88;16132745;19;130040;-37
2022/11/21 19:30:20;;;;;;;8.48;2.50;;;;;;;19.86;42.31;99072.22;16132564;19;130201;-37
2022/11/21 19:35:43;;;;;;;13.68;2.63;;;;;;;19.78;42.37;99057.06;16130960;19;129467;-37
2022/11/21 19:41:12;;;;;;;6.88;2.28;;;;;;;19.69;42.57;99040.28;16125596;19;129729;-37
2022/11/21 19:46:37;;;;;;;9.05;2.50;;;;;;;19.58;42.61;99042.34;16127452;19;129909;-38
2022/11/21 19:51:59;;;;;;;9.90;2.30;;;;;;;19.51;42.85;99039.94;16124073;19;131607;-39
2022/11/21 19:57:21;;;;;;;7.90;2.33;;;;;;;19.45;42.97;99037.53;16128092;19;129459;-38
2022/11/21 20:02:43;;;;;;;15.50;2.97;;;;;;;19.38;42.46;99038.75;16129224;19;130568;-39
2022/11/21 20:08:05;;;;;;;19.77;2.92;;;;;;;19.38;42.14;99027.66;16128957;19;130053;-38
2022/11/21 20:13:39;;;;;;;14.07;2.40;;;;;;;19.52;41.87;99029.69;16130283;19;131180;-38
2022/11/21 20:19:05;;;;;;;14.27;2.65;;;;;;;19.69;41.63;99018.06;16124315;19;129928;-38
2022/11/21 20:24:27;;;;;;;10.35;2.10;;;;;;;19.87;41.56;99021.97;16125532;19;130734;-39
2022/11/21 20:29:49;;;;;;;11.65;2.20;;;;;;;20.05;41.62;99016.72;16122857;19;129561;-38
2022/11/21 20:35:13;;;;;;;6.28;2.05;;;;;;;20.21;41.37;99003.41;16125830;19;129212;-38
2022/11/21 20:40:35;;;;;;;8.30;1.80;;;;;;;20.29;41.42;98998.00;16125081;19;129417;-39
2022/11/21 20:46:01;;;;;;;5.65;2.03;;;;;;;20.34;41.25;98990.69;16124819;19;130188;-39
2022/11/21 20:51:31;;;;;;;7.20;1.48;;;;;;;20.32;41.61;98979.06;16123621;19;129381;-38
2022/11/21 20:57:12;;;;;;;5.32;1.42;;;;;;;20.26;41.51;98976.38;16121441;19;130700;-37
2022/11/21 21:02:36;;;;;;;8.40;1.50;;;;;;;20.20;41.42;98980.38;16121860;19;129892;-39
2022/11/21 21:07:57;;;;;;;5.03;1.50;;;;;;;20.12;41.15;98976.34;16122474;19;129342;-39
2022/11/21 21:13:19;;;;;;;8.63;1.50;;;;;;;20.07;41.32;98989.47;16123910;19;129511;-38
2022/11/21 21:18:42;;;;;;;12.35;1.80;;;;;;;19.97;41.45;98994.03;16121715;19;129557;-39
2022/11/21 21:24:13;;;;;;;20.75;1.83;;;;;;;19.87;41.29;98999.75;16118541;19;131671;-40
2022/11/21 21:29:35;;;;;;;8.65;1.45;;;;;;;19.81;41.83;98995.44;16119167;19;129495;-39
2022/11/21 21:34:57;;;;;;;16.73;1.70;;;;;;;19.77;41.83;99002.69;16121562;19;130533;-38
2022/11/21 21:40:18;;;;;;;4.78;1.60;;;;;;;19.72;42.39;98997.22;16120196;19;129360;-38
2022/11/21 21:45:40;;;;;;;7.05;1.27;;;;;;;19.69;41.84;98998.66;16124969;19;129560;-39
2022/11/21 21:51:03;;;;;;;15.80;1.88;;;;;;;19.66;42.08;99000.09;16119486;19;129645;-38
2022/11/21 21:56:26;;;;;;;14.40;1.80;;;;;;;19.62;42.21;99001.00;16115424;19;129811;-38
2022/11/21 22:01:48;;;;;;;21.02;1.98;;;;;;;19.55;42.63;99000.53;16117391;19;129517;-39
2022/11/21 22:07:10;;;;;;;31.05;2.03;;;;;;;19.46;42.34;99001.22;16115547;19;129667;-39
2022/11/21 22:12:32;;;;;;;15.40;1.13;;;;;;;19.35;42.43;99006.06;16118508;19;129474;-39
2022/11/21 22:17:53;;;;;;;12.95;1.20;;;;;;;19.30;42.34;98999.75;16120431;19;129422;-39
2022/11/21 22:23:15;;;;;;;7.15;1.20;;;;;;;19.22;42.37;98987.38;16115734;19;129494;-38
2022/11/21 22:28:38;;;;;;;11.05;1.40;;;;;;;19.18;42.61;98997.41;16118744;19;129322;-39
2022/11/21 22:34:00;;;;;;;8.32;1.20;;;;;;;19.12;42.69;98998.56;16119151;19;129759;-38
2022/11/21 22:39:22;;;;;;;6.00;1.00;;;;;;;19.08;42.78;98998.34;16116320;19;129527;-38
2022/11/21 22:44:44;;;;;;;6.63;0.85;;;;;;;19.02;42.81;99000.34;16129802;19;130839;-38
2022/11/21 22:50:06;;;;;;;5.70;0.95;;;;;;;18.99;42.73;98989.84;16129200;19;129609;-38
2022/11/21 22:55:28;;;;;;;7.78;0.95;;;;;;;18.96;43.05;99000.72;16123151;19;130238;-38
2022/11/21 23:00:50;;;;;;;3.95;0.55;;;;;;;18.92;42.88;99011.56;16122335;19;130541;-39
2022/11/21 23:06:17;;;;;;;2.60;0.60;;;;;;;18.90;42.88;99019.34;16129235;19;130435;-37
2022/11/21 23:11:38;;;;;;;3.45;0.70;;;;;;;18.86;43.04;99004.41;16130149;19;129694;-39
2022/11/21 23:17:01;;;;;;;7.15;0.70;;;;;;;18.83;42.64;98997.53;16135012;19;133708;-38
2022/11/21 23:22:23;;;;;;;3.90;0.80;;;;;;;18.81;42.83;99012.81;16130188;19;129837;-38
2022/11/21 23:27:45;;;;;;;1.30;0.50;;;;;;;18.75;43.05;98999.00;16132551;19;129678;-38
2022/11/21 23:33:07;;;;;;;4.60;0.90;;;;;;;18.73;43.11;98992.94;16128455;19;129720;-38
2022/11/21 23:38:29;;;;;;;2.17;0.50;;;;;;;18.72;43.10;99012.63;16127172;19;129671;-38
2022/11/21 23:43:50;;;;;;;3.38;0.60;;;;;;;18.69;43.07;99024.28;16129736;19;129659;-40
2022/11/21 23:49:12;;;;;;;3.28;0.85;;;;;;;18.66;42.74;99022.94;16128632;19;129288;-39
2022/11/21 23:54:34;;;;;;;1.67;0.45;;;;;;;18.62;43.18;99024.63;16131114;19;129941;-39
2022/11/21 23:59:55;;;;;;;3.97;0.57;;;;;;;18.60;42.97;99026.84;16128204;19;129940;-38
